Time;durP1;ratioP1;P1;durP2;ratioP2;P2;SDS_P1;SDS_P2;PMS_P1;PMS_P2;Temp;Humidity;BMP_temperature;BMP_pressure;BME280_temperature;BME280_humidity;BME280_pressure;Samples;Min_cycle;Max_cycle;Signal;HPM_P1;HPM_P2
2021/03/29 00:00:14;;;;;;;25.92;5.18;;;;;;;;;;5223264;27;20046;-85
2021/03/29 00:02:43;;;;;;;23.08;4.75;;;;;;;;;;5200939;27;21160;-86
2021/03/29 00:05:11;;;;;;;26.95;5.20;;;;;;;;;;5224312;27;20030;-86
2021/03/29 00:07:40;;;;;;;24.75;4.93;;;;;;;;;;5204704;27;20022;-86
2021/03/29 00:10:09;;;;;;;34.25;5.05;;;;;;;;;;5230097;27;20023;-85
2021/03/29 00:12:39;;;;;;;36.30;5.43;;;;;;;;;;5226871;27;20085;-85
2021/03/29 00:15:08;;;;;;;22.95;4.00;;;;;;;;;;5230657;27;20076;-85
2021/03/29 00:17:38;;;;;;;33.42;6.60;;;;;;;;;;5208106;27;20455;-85
2021/03/29 00:20:08;;;;;;;31.20;5.28;;;;;;;;;;5209852;27;20018;-85
2021/03/29 00:22:36;;;;;;;31.05;10.15;;;;;;;;;;5223965;27;20027;-85
2021/03/29 00:25:09;;;;;;;30.80;6.50;;;;;;;;;;5221072;27;20027;-85
2021/03/29 00:27:38;;;;;;;33.58;5.25;;;;;;;;;;5224766;27;20130;-86
2021/03/29 00:30:08;;;;;;;25.12;5.03;;;;;;;;;;5228201;27;20037;-86
2021/03/29 00:32:36;;;;;;;24.20;4.40;;;;;;;;;;5225983;27;20436;-85
2021/03/29 00:35:05;;;;;;;25.95;4.87;;;;;;;;;;5230376;27;20022;-84
2021/03/29 00:37:33;;;;;;;29.40;5.68;;;;;;;;;;5233214;27;20030;-85
2021/03/29 00:40:04;;;;;;;26.30;4.85;;;;;;;;;;5231472;27;20026;-85
2021/03/29 00:42:35;;;;;;;30.12;5.03;;;;;;;;;;5228884;27;20094;-84
2021/03/29 00:45:05;;;;;;;25.42;5.47;;;;;;;;;;5206287;27;21174;-86
2021/03/29 00:47:35;;;;;;;27.75;4.47;;;;;;;;;;5205161;27;20322;-86
2021/03/29 00:50:08;;;;;;;24.37;4.78;;;;;;;;;;5223317;27;20052;-85
2021/03/29 00:52:37;;;;;;;25.75;5.00;;;;;;;;;;5230216;27;20022;-85
2021/03/29 00:55:07;;;;;;;26.02;5.05;;;;;;;;;;5225096;27;20057;-85
2021/03/29 00:57:36;;;;;;;20.50;4.75;;;;;;;;;;5222120;27;20128;-85
2021/03/29 01:00:12;;;;;;;15.18;4.10;;;;;;;;;;5222915;27;20014;-85
2021/03/29 01:02:41;;;;;;;20.30;4.50;;;;;;;;;;5228453;27;20062;-85
2021/03/29 01:05:14;;;;;;;18.25;3.78;;;;;;;;;;5229133;27;20273;-85
2021/03/29 01:07:44;;;;;;;19.10;4.18;;;;;;;;;;5218374;27;20030;-86
2021/03/29 01:10:13;;;;;;;23.20;4.57;;;;;;;;;;5227806;27;20019;-84
2021/03/29 01:12:42;;;;;;;15.57;3.45;;;;;;;;;;5202355;27;20054;-85
2021/03/29 01:15:14;;;;;;;22.75;4.07;;;;;;;;;;5203101;27;20080;-85
2021/03/29 01:17:43;;;;;;;15.63;3.28;;;;;;;;;;5202801;27;20054;-86
2021/03/29 01:20:18;;;;;;;22.17;3.37;;;;;;;;;;5206475;27;20084;-85
2021/03/29 01:22:47;;;;;;;17.70;3.93;;;;;;;;;;5225825;27;20014;-85
2021/03/29 01:25:24;;;;;;;20.75;3.62;;;;;;;;;;5221471;27;20645;-85
2021/03/29 01:27:58;;;;;;;23.80;4.12;;;;;;;;;;5208298;27;20058;-86
2021/03/29 01:30:26;;;;;;;17.42;4.12;;;;;;;;;;5228501;27;20032;-86
2021/03/29 01:32:56;;;;;;;22.25;3.45;;;;;;;;;;5218754;27;20068;-85
2021/03/29 01:35:27;;;;;;;19.62;3.42;;;;;;;;;;5221566;27;20094;-86
2021/03/29 01:37:57;;;;;;;21.05;4.18;;;;;;;;;;5228515;27;20443;-85
2021/03/29 01:40:25;;;;;;;29.87;4.50;;;;;;;;;;5223867;27;20038;-86
2021/03/29 01:42:56;;;;;;;22.65;4.07;;;;;;;;;;5205704;27;20030;-85
2021/03/29 01:45:25;;;;;;;23.10;4.07;;;;;;;;;;5223808;27;20022;-85
2021/03/29 01:47:53;;;;;;;25.27;4.00;;;;;;;;;;5224626;27;20056;-86
2021/03/29 01:50:27;;;;;;;20.37;3.47;;;;;;;;;;5226614;27;20957;-86
2021/03/29 01:52:57;;;;;;;17.90;3.27;;;;;;;;;;5221266;27;20069;-86
2021/03/29 01:55:28;;;;;;;18.50;3.90;;;;;;;;;;5227874;27;20019;-86
2021/03/29 01:57:57;;;;;;;15.15;2.67;;;;;;;;;;5230297;27;20446;-85
2021/03/29 02:00:29;;;;;;;15.70;3.03;;;;;;;;;;5225460;27;20055;-85
2021/03/29 02:02:58;;;;;;;18.95;2.97;;;;;;;;;;5202050;27;20081;-85
2021/03/29 02:05:26;;;;;;;19.25;3.00;;;;;;;;;;5225869;27;20030;-86
2021/03/29 02:07:54;;;;;;;20.20;3.97;;;;;;;;;;5227566;27;20022;-86
2021/03/29 02:10:25;;;;;;;16.80;3.08;;;;;;;;;;5212369;27;20026;-86
2021/03/29 02:12:54;;;;;;;10.90;2.85;;;;;;;;;;5221487;27;20026;-86
2021/03/29 02:15:24;;;;;;;13.85;3.00;;;;;;;;;;5223656;27;20049;-86
2021/03/29 02:18:03;;;;;;;19.60;3.40;;;;;;;;;;5209124;27;20348;-85
2021/03/29 02:20:35;;;;;;;16.50;3.22;;;;;;;;;;5224985;27;20034;-86
2021/03/29 02:23:05;;;;;;;26.10;3.28;;;;;;;;;;5229035;27;20034;-86
2021/03/29 02:25:34;;;;;;;13.57;3.10;;;;;;;;;;5229954;27;20426;-86
2021/03/29 02:28:04;;;;;;;13.40;2.97;;;;;;;;;;5229736;27;20018;-85
2021/03/29 02:30:38;;;;;;;15.43;2.90;;;;;;;;;;5225829;27;20525;-85
2021/03/29 02:33:09;;;;;;;21.27;5.72;;;;;;;;;;5228593;27;20503;-86
2021/03/29 02:35:38;;;;;;;19.35;5.40;;;;;;;;;;5231313;27;20006;-85
2021/03/29 02:38:08;;;;;;;14.87;2.72;;;;;;;;;;5225368;27;20042;-86
2021/03/29 02:40:38;;;;;;;19.12;7.85;;;;;;;;;;5221550;27;20057;-85
2021/03/29 02:43:06;;;;;;;21.52;11.05;;;;;;;;;;5227923;27;20055;-85
2021/03/29 02:45:36;;;;;;;16.92;8.70;;;;;;;;;;5229573;27;20026;-85
2021/03/29 02:48:09;;;;;;;10.77;2.53;;;;;;;;;;5226259;27;20131;-85
2021/03/29 02:50:38;;;;;;;21.48;5.43;;;;;;;;;;5225739;27;20122;-86
2021/03/29 02:53:17;;;;;;;15.35;4.50;;;;;;;;;;5231380;27;20041;-85
2021/03/29 02:55:46;;;;;;;19.20;6.05;;;;;;;;;;5225703;27;20038;-84
2021/03/29 02:58:17;;;;;;;21.80;6.07;;;;;;;;;;5222899;27;20061;-85
2021/03/29 03:00:46;;;;;;;24.15;5.53;;;;;;;;;;5224927;27;20030;-85
2021/03/29 03:03:14;;;;;;;33.65;7.22;;;;;;;;;;5211186;27;20022;-84
2021/03/29 03:05:44;;;;;;;26.75;6.43;;;;;;;;;;5229238;27;20034;-84
2021/03/29 03:08:12;;;;;;;26.48;4.37;;;;;;;;;;5224723;27;20030;-85
2021/03/29 03:10:40;;;;;;;30.60;5.03;;;;;;;;;;5232573;27;20030;-92
2021/03/29 03:13:09;;;;;;;23.55;4.75;;;;;;;;;;5221400;27;20024;-94
2021/03/29 03:15:38;;;;;;;22.58;4.53;;;;;;;;;;5223347;27;20021;-93
2021/03/29 03:18:09;;;;;;;28.30;4.70;;;;;;;;;;5222615;27;20080;-93
2021/03/29 03:20:40;;;;;;;31.12;5.57;;;;;;;;;;5221887;27;20030;-92
2021/03/29 03:23:08;;;;;;;28.30;4.72;;;;;;;;;;5222310;27;20074;-94
2021/03/29 03:25:38;;;;;;;21.10;3.87;;;;;;;;;;5222219;27;20026;-93
2021/03/29 03:28:08;;;;;;;20.40;4.05;;;;;;;;;;5220944;27;20018;-94
2021/03/29 03:30:37;;;;;;;21.25;3.95;;;;;;;;;;5221135;27;20423;-94
2021/03/29 03:33:07;;;;;;;40.42;6.20;;;;;;;;;;5221028;27;20018;-94
2021/03/29 03:35:37;;;;;;;23.75;4.57;;;;;;;;;;5221451;27;20029;-94
2021/03/29 03:38:16;;;;;;;21.73;4.62;;;;;;;;;;5223062;27;20032;-94
2021/03/29 03:40:45;;;;;;;24.75;4.37;;;;;;;;;;5223489;27;20385;-92
2021/03/29 03:43:15;;;;;;;39.47;6.28;;;;;;;;;;5221425;27;20343;-93
2021/03/29 03:45:47;;;;;;;39.75;5.70;;;;;;;;;;5221470;27;20402;-94
2021/03/29 03:48:18;;;;;;;41.05;6.22;;;;;;;;;;5223347;27;20017;-96
2021/03/29 03:50:47;;;;;;;34.17;5.50;;;;;;;;;;5211099;27;20045;-93
2021/03/29 03:53:17;;;;;;;32.13;5.60;;;;;;;;;;5221552;27;20034;-94
2021/03/29 03:55:46;;;;;;;35.60;5.22;;;;;;;;;;5224108;27;20088;-93
2021/03/29 03:58:15;;;;;;;38.70;6.28;;;;;;;;;;5224243;27;20479;-93
2021/03/29 04:00:45;;;;;;;34.38;6.37;;;;;;;;;;5223070;27;20090;-93
2021/03/29 04:03:13;;;;;;;49.40;7.32;;;;;;;;;;5221479;27;20659;-93
2021/03/29 04:05:41;;;;;;;46.60;14.57;;;;;;;;;;5214461;27;20076;-92
2021/03/29 04:08:30;;;;;;;44.10;14.87;;;;;;;;;;5225177;27;20088;-91
2021/03/29 04:11:00;;;;;;;40.83;13.35;;;;;;;;;;5223738;27;20034;-94
2021/03/29 04:13:29;;;;;;;52.45;15.90;;;;;;;;;;5222119;27;20040;-94
2021/03/29 04:16:00;;;;;;;39.75;14.87;;;;;;;;;;5222983;27;20029;-92
2021/03/29 04:18:29;;;;;;;45.47;15.60;;;;;;;;;;5222497;27;20762;-92
2021/03/29 04:20:58;;;;;;;37.45;15.52;;;;;;;;;;5223955;27;20370;-91
2021/03/29 04:23:29;;;;;;;48.35;17.75;;;;;;;;;;5222247;27;20059;-94
2021/03/29 04:25:57;;;;;;;39.60;16.12;;;;;;;;;;5222384;27;20041;-93
2021/03/29 04:28:26;;;;;;;43.17;16.23;;;;;;;;;;5223361;27;20032;-93
2021/03/29 04:30:54;;;;;;;39.83;16.20;;;;;;;;;;5221699;27;20615;-92
2021/03/29 04:33:25;;;;;;;49.17;16.73;;;;;;;;;;5221668;27;20031;-91
2021/03/29 04:35:55;;;;;;;39.78;15.95;;;;;;;;;;5222378;27;20018;-92
2021/03/29 04:38:23;;;;;;;50.45;17.08;;;;;;;;;;5223942;27;20030;-92
2021/03/29 04:40:51;;;;;;;49.42;18.42;;;;;;;;;;5238885;27;20053;-92
2021/03/29 04:43:20;;;;;;;51.37;17.83;;;;;;;;;;5222246;27;20252;-93
2021/03/29 04:45:49;;;;;;;47.08;20.08;;;;;;;;;;5222794;27;20038;-94
2021/03/29 04:48:17;;;;;;;51.58;20.30;;;;;;;;;;5222723;27;20440;-93
2021/03/29 04:50:46;;;;;;;48.87;20.35;;;;;;;;;;5221370;27;20353;-94
2021/03/29 04:53:14;;;;;;;42.13;17.00;;;;;;;;;;5222060;27;20067;-93
2021/03/29 04:55:42;;;;;;;38.80;14.35;;;;;;;;;;5222095;27;20028;-92
2021/03/29 04:58:11;;;;;;;42.53;16.67;;;;;;;;;;5222085;27;20066;-93
2021/03/29 05:00:39;;;;;;;47.95;19.55;;;;;;;;;;5221534;27;20039;-94
2021/03/29 05:03:07;;;;;;;45.25;19.87;;;;;;;;;;5221399;27;20022;-91
2021/03/29 05:05:36;;;;;;;44.20;18.92;;;;;;;;;;5239305;27;20045;-93
2021/03/29 05:08:04;;;;;;;41.30;18.10;;;;;;;;;;5222842;27;20053;-92
2021/03/29 05:10:34;;;;;;;44.17;19.80;;;;;;;;;;5221789;27;20026;-91
2021/03/29 05:13:05;;;;;;;40.58;19.35;;;;;;;;;;5222565;27;20725;-92
2021/03/29 05:15:33;;;;;;;39.38;20.88;;;;;;;;;;5222420;27;20018;-92
2021/03/29 05:18:03;;;;;;;39.00;20.92;;;;;;;;;;5221975;27;20029;-93
2021/03/29 05:20:32;;;;;;;19.83;6.22;;;;;;;;;;5222323;27;20042;-93
2021/03/29 05:23:01;;;;;;;49.75;21.10;;;;;;;;;;5221550;27;20050;-92
2021/03/29 05:25:33;;;;;;;42.42;17.75;;;;;;;;;;5224047;27;20327;-93
2021/03/29 05:28:01;;;;;;;35.75;6.68;;;;;;;;;;5219914;27;20127;-92
2021/03/29 05:30:29;;;;;;;34.83;5.78;;;;;;;;;;5219922;27;20030;-93
2021/03/29 05:32:57;;;;;;;28.83;5.93;;;;;;;;;;5221709;27;20036;-92
2021/03/29 05:35:28;;;;;;;30.60;7.62;;;;;;;;;;5219950;27;20018;-93
2021/03/29 05:37:59;;;;;;;38.03;10.20;;;;;;;;;;5220082;27;20036;-93
2021/03/29 05:40:32;;;;;;;37.78;13.38;;;;;;;;;;5223268;27;20251;-91
2021/03/29 05:43:00;;;;;;;35.25;13.27;;;;;;;;;;5220753;27;20044;-94
2021/03/29 05:45:30;;;;;;;34.20;13.25;;;;;;;;;;5239244;27;20687;-93
2021/03/29 05:48:01;;;;;;;32.22;13.77;;;;;;;;;;5240811;27;20018;-93
2021/03/29 05:50:29;;;;;;;28.55;6.25;;;;;;;;;;5222920;27;20025;-94
2021/03/29 05:53:02;;;;;;;32.05;6.07;;;;;;;;;;5220790;27;20030;-93
2021/03/29 05:55:35;;;;;;;32.95;15.13;;;;;;;;;;5221011;27;20065;-92
2021/03/29 05:58:19;;;;;;;43.22;16.10;;;;;;;;;;5222810;27;20025;-90
2021/03/29 06:00:51;;;;;;;33.35;16.30;;;;;;;;;;5222037;27;20025;-92
2021/03/29 06:03:20;;;;;;;40.85;17.05;;;;;;;;;;5220959;27;20410;-94
2021/03/29 06:05:51;;;;;;;39.30;15.63;;;;;;;;;;5219858;27;20081;-93
2021/03/29 06:08:20;;;;;;;34.15;14.35;;;;;;;;;;5223182;27;20052;-91
2021/03/29 06:10:54;;;;;;;38.88;17.50;;;;;;;;;;5236976;27;20103;-92
2021/03/29 06:13:25;;;;;;;30.55;12.80;;;;;;;;;;5219575;27;20030;-93
2021/03/29 06:16:01;;;;;;;30.50;12.07;;;;;;;;;;5221031;27;20018;-92
2021/03/29 06:18:30;;;;;;;25.37;4.97;;;;;;;;;;5221919;27;20035;-92
2021/03/29 06:21:05;;;;;;;25.35;5.72;;;;;;;;;;5220565;27;20464;-94
2021/03/29 06:23:35;;;;;;;30.42;4.90;;;;;;;;;;5221542;27;20140;-92
2021/03/29 06:26:26;;;;;;;30.65;5.43;;;;;;;;;;5223074;27;20418;-92
2021/03/29 06:28:55;;;;;;;23.42;5.07;;;;;;;;;;5210929;27;20764;-95
2021/03/29 06:31:28;;;;;;;21.98;4.65;;;;;;;;;;5220481;27;20068;-93
2021/03/29 06:33:57;;;;;;;25.37;4.40;;;;;;;;;;5221815;27;20025;-92
2021/03/29 06:36:34;;;;;;;27.77;5.12;;;;;;;;;;5223401;27;20041;-95
2021/03/29 06:39:09;;;;;;;32.75;5.28;;;;;;;;;;5221401;27;20025;-94
2021/03/29 06:41:38;;;;;;;31.42;5.85;;;;;;;;;;5221865;27;20081;-92
2021/03/29 06:44:08;;;;;;;35.28;13.93;;;;;;;;;;5222827;27;20026;-94
2021/03/29 06:46:36;;;;;;;33.72;13.23;;;;;;;;;;5223745;27;20056;-94
2021/03/29 06:49:04;;;;;;;33.30;13.48;;;;;;;;;;5219632;27;20473;-93
2021/03/29 06:51:36;;;;;;;26.20;9.70;;;;;;;;;;5237122;27;20223;-92
2021/03/29 06:54:08;;;;;;;35.83;13.73;;;;;;;;;;5221834;27;20023;-92
2021/03/29 06:56:39;;;;;;;36.60;15.88;;;;;;;;;;5219146;27;20022;-93
2021/03/29 06:59:14;;;;;;;40.72;23.98;;;;;;;;;;5219021;27;20018;-92
2021/03/29 07:01:50;;;;;;;35.15;21.10;;;;;;;;;;5218712;27;20032;-92
2021/03/29 07:04:23;;;;;;;45.53;29.90;;;;;;;;;;5221540;27;20040;-94
2021/03/29 07:06:52;;;;;;;30.15;8.68;;;;;;;;;;5220841;27;20018;-94
2021/03/29 07:09:25;;;;;;;26.87;6.53;;;;;;;;;;5220899;27;20024;-92
2021/03/29 07:11:55;;;;;;;25.37;11.93;;;;;;;;;;5221639;27;20055;-92
2021/03/29 07:14:23;;;;;;;33.00;13.43;;;;;;;;;;5220594;27;20053;-92
2021/03/29 07:16:55;;;;;;;19.55;3.95;;;;;;;;;;5220661;27;20042;-92
2021/03/29 07:19:24;;;;;;;88.55;46.10;;;;;;;;;;5220962;27;20033;-93
2021/03/29 07:21:52;;;;;;;62.80;37.58;;;;;;;;;;5220518;27;20017;-95
2021/03/29 07:24:28;;;;;;;24.37;4.78;;;;;;;;;;5221632;27;20498;-94
2021/03/29 07:26:58;;;;;;;21.77;3.72;;;;;;;;;;5220497;27;20067;-93
2021/03/29 07:29:34;;;;;;;25.27;4.43;;;;;;;;;;5220620;27;20088;-94
2021/03/29 07:32:06;;;;;;;26.58;4.65;;;;;;;;;;5218102;27;20028;-94
2021/03/29 07:34:48;;;;;;;29.92;4.95;;;;;;;;;;5222486;27;20647;-92
2021/03/29 07:37:29;;;;;;;20.75;4.35;;;;;;;;;;5223688;27;20065;-93
2021/03/29 07:40:18;;;;;;;29.67;5.35;;;;;;;;;;5222829;27;20033;-94
2021/03/29 07:42:51;;;;;;;36.70;5.47;;;;;;;;;;5207922;27;20036;-95
2021/03/29 07:45:24;;;;;;;29.15;4.60;;;;;;;;;;5224604;27;20066;-95
2021/03/29 07:47:57;;;;;;;28.95;4.82;;;;;;;;;;5223371;27;20505;-95
2021/03/29 07:50:26;;;;;;;29.83;5.35;;;;;;;;;;5223633;27;20030;-94
2021/03/29 07:52:56;;;;;;;30.35;5.00;;;;;;;;;;5223820;27;20017;-93
2021/03/29 07:55:27;;;;;;;28.65;5.07;;;;;;;;;;5223294;27;20030;-92
2021/03/29 07:58:00;;;;;;;32.22;17.17;;;;;;;;;;5225541;27;20018;-94
2021/03/29 08:00:33;;;;;;;32.92;6.20;;;;;;;;;;5239486;27;20080;-93
2021/03/29 08:03:11;;;;;;;25.92;4.50;;;;;;;;;;5224876;27;20090;-91
2021/03/29 08:05:42;;;;;;;;;;;;;;;;;;5227298;27;20029;-94
2021/03/29 08:08:27;;;;;;;57.38;33.47;;;;;;;;;;5229294;27;19959;-94
2021/03/29 08:11:16;;;;;;;21.90;5.28;;;;;;;;;;5230269;27;20077;-94
2021/03/29 08:13:44;;;;;;;20.60;7.50;;;;;;;;;;5244737;27;20021;-96
2021/03/29 08:16:17;;;;;;;22.50;5.05;;;;;;;;;;5231169;27;20022;-96
2021/03/29 08:19:07;;;;;;;17.45;4.55;;;;;;;;;;5228009;27;20028;-96
2021/03/29 08:21:42;;;;;;;21.45;4.45;;;;;;;;;;5224491;27;20320;-96
2021/03/29 08:24:31;;;;;;;25.02;5.18;;;;;;;;;;5226182;27;20017;-96
2021/03/29 08:27:05;;;;;;;18.02;4.40;;;;;;;;;;5226660;27;20027;-96
2021/03/29 08:29:40;;;;;;;17.85;5.15;;;;;;;;;;5227719;27;20062;-95
2021/03/29 08:32:16;;;;;;;20.17;4.75;;;;;;;;;;5223653;27;20025;-95
2021/03/29 08:34:54;;;;;;;21.40;5.00;;;;;;;;;;5247581;27;20078;-96
2021/03/29 08:37:30;;;;;;;16.62;4.60;;;;;;;;;;5264141;27;20022;-95
2021/03/29 08:40:23;;;;;;;21.25;4.62;;;;;;;;;;5228143;27;20022;-96
2021/03/29 08:43:00;;;;;;;13.48;4.20;;;;;;;;;;5244407;27;20048;-96
2021/03/29 08:45:39;;;;;;;19.30;5.35;;;;;;;;;;5223073;27;20466;-96
2021/03/29 08:48:10;;;;;;;22.33;5.50;;;;;;;;;;5223558;27;20021;-93
2021/03/29 08:53:18;;;;;;;20.52;5.53;;;;;;;;;;5247949;27;20017;-96
2021/03/29 08:56:00;;;;;;;22.25;4.47;;;;;;;;;;5235059;27;20612;-96
2021/03/29 08:58:37;;;;;;;22.77;5.07;;;;;;;;;;5265295;27;20743;-96
2021/03/29 09:01:09;;;;;;;20.45;5.20;;;;;;;;;;5227240;27;20141;-95
2021/03/29 09:03:39;;;;;;;17.58;5.12;;;;;;;;;;5225443;27;20440;-96
2021/03/29 09:06:15;;;;;;;18.75;4.95;;;;;;;;;;5227403;27;20025;-96
2021/03/29 09:08:45;;;;;;;22.55;5.45;;;;;;;;;;5209862;27;20668;-96
2021/03/29 09:11:16;;;;;;;22.90;5.68;;;;;;;;;;5222230;27;20422;-96
2021/03/29 09:13:49;;;;;;;21.33;5.32;;;;;;;;;;5224971;27;20060;-96
2021/03/29 09:16:31;;;;;;;16.37;4.57;;;;;;;;;;5230364;27;20022;-95
2021/03/29 09:19:16;;;;;;;19.20;4.75;;;;;;;;;;5245386;27;20026;-94
2021/03/29 09:42:44;;;;;;;15.23;4.47;;;;;;;;;;5223468;27;20073;-83
2021/03/29 09:45:22;;;;;;;16.58;4.68;;;;;;;;;;5225227;27;20025;-83
2021/03/29 09:48:03;;;;;;;19.98;5.15;;;;;;;;;;5231369;27;20053;-83
2021/03/29 09:50:39;;;;;;;15.45;4.72;;;;;;;;;;5232170;27;20049;-83
2021/03/29 09:53:09;;;;;;;15.60;4.05;;;;;;;;;;5229495;27;20023;-85
2021/03/29 09:55:45;;;;;;;19.05;4.25;;;;;;;;;;5230752;27;20026;-84
2021/03/29 09:58:22;;;;;;;16.92;3.92;;;;;;;;;;5232197;27;20045;-84
2021/03/29 10:00:51;;;;;;;19.48;4.65;;;;;;;;;;5228262;27;20050;-85
2021/03/29 10:03:24;;;;;;;21.97;4.60;;;;;;;;;;5223642;27;20472;-84
2021/03/29 10:05:53;;;;;;;16.10;3.87;;;;;;;;;;5228682;27;20460;-83
2021/03/29 10:08:26;;;;;;;27.50;5.50;;;;;;;;;;5230255;27;20031;-85
2021/03/29 10:11:07;;;;;;;42.95;6.15;;;;;;;;;;5224008;27;20377;-84
2021/03/29 10:13:39;;;;;;;25.90;5.60;;;;;;;;;;5227262;27;20333;-83
2021/03/29 10:16:20;;;;;;;22.23;4.80;;;;;;;;;;5232274;27;20018;-83
2021/03/29 10:19:13;;;;;;;21.70;4.15;;;;;;;;;;5232528;27;20056;-84
2021/03/29 10:22:00;;;;;;;30.65;5.28;;;;;;;;;;5219732;27;20062;-83
2021/03/29 10:24:29;;;;;;;31.98;4.75;;;;;;;;;;5230384;27;20038;-83
2021/03/29 10:26:59;;;;;;;24.65;4.75;;;;;;;;;;5230580;27;20052;-82
2021/03/29 10:29:37;;;;;;;27.67;5.07;;;;;;;;;;5232083;27;20026;-82
2021/03/29 10:32:10;;;;;;;27.92;5.05;;;;;;;;;;5228936;27;20049;-82
2021/03/29 10:34:39;;;;;;;26.30;8.40;;;;;;;;;;5229312;27;20022;-84
2021/03/29 10:37:27;;;;;;;22.87;6.70;;;;;;;;;;5231346;27;20031;-84
2021/03/29 10:39:56;;;;;;;20.35;5.57;;;;;;;;;;5229613;27;20061;-85
2021/03/29 10:42:26;;;;;;;18.90;5.40;;;;;;;;;;5227253;27;20281;-85
2021/03/29 10:44:55;;;;;;;15.43;4.87;;;;;;;;;;5231036;27;20053;-85
2021/03/29 10:47:24;;;;;;;19.92;5.15;;;;;;;;;;5229445;27;20058;-85
2021/03/29 10:49:53;;;;;;;15.52;4.12;;;;;;;;;;5228502;27;20041;-85
2021/03/29 10:52:21;;;;;;;12.73;4.12;;;;;;;;;;5229500;27;20058;-86
2021/03/29 10:54:54;;;;;;;11.68;3.97;;;;;;;;;;5224671;27;20022;-85
2021/03/29 10:57:23;;;;;;;17.85;4.75;;;;;;;;;;5230089;27;20076;-85
2021/03/29 10:59:54;;;;;;;17.08;5.25;;;;;;;;;;5233326;27;20040;-85
2021/03/29 11:02:22;;;;;;;18.00;4.45;;;;;;;;;;5229039;27;20031;-85
2021/03/29 11:04:51;;;;;;;18.67;5.07;;;;;;;;;;5229931;27;20062;-85
2021/03/29 11:07:18;;;;;;;18.08;5.22;;;;;;;;;;5230432;27;20027;-85
2021/03/29 11:09:46;;;;;;;15.52;4.57;;;;;;;;;;5219329;27;20049;-86
2021/03/29 11:12:20;;;;;;;;;;;;;;;;;;5228639;27;20346;-85
2021/03/29 11:14:48;;;;;;;15.95;4.45;;;;;;;;;;5230809;27;19944;-87
2021/03/29 11:17:18;;;;;;;16.83;4.90;;;;;;;;;;5230464;27;20064;-86
2021/03/29 11:19:47;;;;;;;13.32;4.53;;;;;;;;;;5230833;27;20100;-86
2021/03/29 11:22:16;;;;;;;17.85;4.75;;;;;;;;;;5228373;27;20033;-86
2021/03/29 11:24:45;;;;;;;22.17;4.43;;;;;;;;;;5229146;27;20054;-85
2021/03/29 11:27:12;;;;;;;18.70;5.55;;;;;;;;;;5231336;27;20087;-86
2021/03/29 11:29:40;;;;;;;20.45;5.12;;;;;;;;;;5227867;27;20053;-86
2021/03/29 11:32:09;;;;;;;18.52;4.97;;;;;;;;;;5229857;27;20041;-86
2021/03/29 11:34:37;;;;;;;16.55;4.80;;;;;;;;;;5230496;27;20089;-86
2021/03/29 11:37:05;;;;;;;19.98;5.43;;;;;;;;;;5230288;27;20026;-86
2021/03/29 11:39:33;;;;;;;14.70;4.85;;;;;;;;;;5228422;27;20074;-86
2021/03/29 11:42:01;;;;;;;17.90;4.85;;;;;;;;;;5229958;27;20034;-85
2021/03/29 11:44:29;;;;;;;21.85;5.43;;;;;;;;;;5230798;27;20053;-85
2021/03/29 11:46:58;;;;;;;16.27;5.00;;;;;;;;;;5230866;27;20077;-86
2021/03/29 11:49:26;;;;;;;22.92;5.53;;;;;;;;;;5228050;27;20022;-85
2021/03/29 11:51:54;;;;;;;20.33;4.85;;;;;;;;;;5230029;27;20065;-85
2021/03/29 11:54:31;;;;;;;22.00;5.37;;;;;;;;;;5229358;27;20363;-86
2021/03/29 11:56:59;;;;;;;24.45;5.57;;;;;;;;;;5226035;27;20451;-86
2021/03/29 11:59:31;;;;;;;21.48;5.28;;;;;;;;;;5229627;27;20030;-86
2021/03/29 12:02:13;;;;;;;21.45;5.10;;;;;;;;;;5226829;27;20444;-86
2021/03/29 12:04:53;;;;;;;21.00;5.28;;;;;;;;;;5219538;27;20043;-85
2021/03/29 12:07:46;;;;;;;25.67;5.25;;;;;;;;;;5223645;27;20026;-85
2021/03/29 12:13:02;;;;;;;22.40;5.20;;;;;;;;;;5228018;27;20058;-85
2021/03/29 12:15:35;;;;;;;26.77;5.70;;;;;;;;;;5231210;27;20506;-84
2021/03/29 12:18:04;;;;;;;22.45;5.60;;;;;;;;;;5227529;27;20022;-85
2021/03/29 12:20:32;;;;;;;25.25;5.95;;;;;;;;;;5231499;27;20040;-84
2021/03/29 12:23:01;;;;;;;22.17;5.68;;;;;;;;;;5231096;27;20046;-84
2021/03/29 12:25:29;;;;;;;21.48;5.12;;;;;;;;;;5230961;27;20081;-84
2021/03/29 12:27:58;;;;;;;19.52;5.18;;;;;;;;;;5229653;27;20054;-84
2021/03/29 12:30:26;;;;;;;21.92;4.97;;;;;;;;;;5230533;27;20359;-84
2021/03/29 12:32:55;;;;;;;25.35;5.37;;;;;;;;;;5230904;27;20065;-84
2021/03/29 12:35:23;;;;;;;15.32;4.00;;;;;;;;;;5231982;27;20054;-87
2021/03/29 12:37:53;;;;;;;24.63;5.22;;;;;;;;;;5218329;27;20096;-84
2021/03/29 12:40:26;;;;;;;18.77;4.40;;;;;;;;;;5229689;27;20101;-85
2021/03/29 12:45:29;;;;;;;25.27;4.80;;;;;;;;;;5230919;27;20427;-84
2021/03/29 12:47:58;;;;;;;22.45;5.05;;;;;;;;;;5225158;27;20333;-84
2021/03/29 12:50:28;;;;;;;23.98;5.20;;;;;;;;;;5230706;27;20081;-87
2021/03/29 12:52:57;;;;;;;21.12;4.07;;;;;;;;;;5231424;27;20344;-84
2021/03/29 12:55:32;;;;;;;21.35;4.85;;;;;;;;;;5231539;27;20060;-84
2021/03/29 12:58:00;;;;;;;25.20;4.85;;;;;;;;;;5227896;27;20023;-85
2021/03/29 13:00:29;;;;;;;22.92;5.62;;;;;;;;;;5231056;27;20605;-84
2021/03/29 13:03:01;;;;;;;22.75;4.70;;;;;;;;;;5230938;27;20065;-85
2021/03/29 13:08:05;;;;;;;19.65;4.10;;;;;;;;;;5228448;27;20093;-85
2021/03/29 13:13:05;;;;;;;19.48;4.43;;;;;;;;;;5228947;27;20070;-84
2021/03/29 13:15:33;;;;;;;18.12;4.07;;;;;;;;;;5226193;27;20050;-85
2021/03/29 13:18:01;;;;;;;20.45;4.35;;;;;;;;;;5226959;27;20069;-85
2021/03/29 13:20:29;;;;;;;16.37;3.95;;;;;;;;;;5232483;27;20038;-84
2021/03/29 13:22:58;;;;;;;17.75;4.28;;;;;;;;;;5229945;27;20050;-84
2021/03/29 13:25:27;;;;;;;17.15;3.80;;;;;;;;;;5227578;27;20129;-84
2021/03/29 13:27:56;;;;;;;21.70;4.25;;;;;;;;;;5229873;27;20388;-84
2021/03/29 13:30:25;;;;;;;15.77;4.00;;;;;;;;;;5231384;27;20065;-84
2021/03/29 13:32:53;;;;;;;18.10;4.03;;;;;;;;;;5227755;27;20217;-85
2021/03/29 13:35:23;;;;;;;21.45;4.35;;;;;;;;;;5229762;27;20461;-85
2021/03/29 13:37:52;;;;;;;17.65;4.25;;;;;;;;;;5229216;27;20027;-85
2021/03/29 13:40:20;;;;;;;19.62;4.20;;;;;;;;;;5232097;27;20031;-84
2021/03/29 13:42:50;;;;;;;21.17;4.10;;;;;;;;;;5231178;27;20073;-85
2021/03/29 13:45:19;;;;;;;19.67;4.07;;;;;;;;;;5229813;27;20286;-84
2021/03/29 13:47:48;;;;;;;20.33;4.00;;;;;;;;;;5228455;27;20064;-84
2021/03/29 13:50:16;;;;;;;26.70;5.37;;;;;;;;;;5228232;27;20064;-85
2021/03/29 13:52:49;;;;;;;21.35;4.28;;;;;;;;;;5227857;27;20065;-85
2021/03/29 13:55:18;;;;;;;17.48;3.40;;;;;;;;;;5234322;27;20019;-85
2021/03/29 13:58:01;;;;;;;17.07;3.87;;;;;;;;;;5230502;27;20018;-84
2021/03/29 14:00:29;;;;;;;16.45;3.60;;;;;;;;;;5227752;27;20030;-85
2021/03/29 14:03:00;;;;;;;19.12;3.80;;;;;;;;;;5219493;27;20030;-85
2021/03/29 14:05:29;;;;;;;19.60;3.85;;;;;;;;;;5225839;27;20389;-85
2021/03/29 14:07:58;;;;;;;25.33;4.25;;;;;;;;;;5220350;27;20049;-85
2021/03/29 14:10:26;;;;;;;20.00;3.75;;;;;;;;;;5226026;27;20065;-85
2021/03/29 14:13:00;;;;;;;17.83;4.07;;;;;;;;;;5225466;27;20034;-85
2021/03/29 14:15:28;;;;;;;18.35;3.95;;;;;;;;;;5227523;27;20289;-84
2021/03/29 14:17:57;;;;;;;16.52;3.53;;;;;;;;;;5226103;27;20034;-85
2021/03/29 14:20:26;;;;;;;26.45;4.65;;;;;;;;;;5227675;27;20042;-85
2021/03/29 14:22:54;;;;;;;23.90;4.95;;;;;;;;;;5229110;27;20058;-85
2021/03/29 14:25:24;;;;;;;19.25;3.90;;;;;;;;;;5231267;27;20037;-85
2021/03/29 14:27:53;;;;;;;20.70;4.57;;;;;;;;;;5231368;27;20026;-84
2021/03/29 14:30:21;;;;;;;20.35;4.45;;;;;;;;;;5231341;27;20379;-85
2021/03/29 14:32:51;;;;;;;17.67;4.20;;;;;;;;;;5221093;27;20035;-85
2021/03/29 14:40:46;;;;;;;19.10;3.35;;;;;;;;;;5230961;27;20033;-85
2021/03/29 14:45:46;;;;;;;17.17;3.40;;;;;;;;;;5228761;27;20370;-85
2021/03/29 14:48:15;;;;;;;18.35;3.15;;;;;;;;;;5230417;27;20101;-85
2021/03/29 14:50:42;;;;;;;18.27;5.35;;;;;;;;;;5231649;27;20040;-84
2021/03/29 14:53:10;;;;;;;16.27;3.50;;;;;;;;;;5231640;27;20049;-85
2021/03/29 14:55:39;;;;;;;16.52;3.55;;;;;;;;;;5230994;27;20085;-85
2021/03/29 14:58:08;;;;;;;16.45;3.20;;;;;;;;;;5229453;27;20038;-85
2021/03/29 15:00:35;;;;;;;10.65;2.40;;;;;;;;;;5227982;27;20038;-85
2021/03/29 15:03:14;;;;;;;11.07;2.60;;;;;;;;;;5224747;27;20069;-85
2021/03/29 15:08:22;;;;;;;13.35;2.80;;;;;;;;;;5229412;27;20033;-85
2021/03/29 15:10:51;;;;;;;9.55;2.47;;;;;;;;;;5224937;27;20103;-84
2021/03/29 15:13:19;;;;;;;11.32;2.70;;;;;;;;;;5223453;27;20409;-85
2021/03/29 15:15:48;;;;;;;12.90;2.60;;;;;;;;;;5216026;27;20046;-85
2021/03/29 15:18:16;;;;;;;13.02;2.87;;;;;;;;;;5223587;27;20030;-85
2021/03/29 15:20:44;;;;;;;6.78;2.28;;;;;;;;;;5223647;27;20030;-85
2021/03/29 15:23:12;;;;;;;11.80;2.33;;;;;;;;;;5227981;27;20034;-84
2021/03/29 15:25:40;;;;;;;11.60;2.25;;;;;;;;;;5229422;27;20054;-85
2021/03/29 15:28:09;;;;;;;13.73;3.10;;;;;;;;;;5228833;27;20038;-85
2021/03/29 15:30:41;;;;;;;7.30;2.40;;;;;;;;;;5225927;27;20070;-85
2021/03/29 15:33:09;;;;;;;10.70;2.62;;;;;;;;;;5224832;27;20145;-86
2021/03/29 15:35:37;;;;;;;10.05;2.25;;;;;;;;;;5203721;27;20054;-84